Chanute Martin Johnson Airport
KCNU : now visible

Airfield :











YOU CAN JOIN US ON...

 
LOGIN :

Register | Disclaimer

   EN    FR    IT 

 









Legend :    VFR   Marginal VFR   IFR   Intensive IFR   Very Intensive IFR
Visi :
Ceiling :
>= 8 km
>= 3000ft
5 to 8 km
1000 to 3000 ft
1500m to 5 km
500 to 1000 ft
800 to 1500m
200 to 500 ft
< 800m
< 200 ft
Symbols :   Thunderstorms  Fog  Heavy snow  Heavy precipitations  Wind > 20 kt






- Airport Elevation : 1002 ft


KCNU - Chanute Martin Johnson

CURRENT METAR :
  • 261252Z AUTO 19009KT 10SM CLR 18/10 A3001 RMK AO2 SLP153 T01830100 TSNO

EXPIRED METARs :
  • 261152Z AUTO 18010KT 10SM CLR 19/09 A3000 RMK AO2 SLP149 T01890089 10189 20150 55002
  • 261052Z AUTO 17009KT 10SM CLR 17/08 A3000 RMK AO2 SLP148 T01720083

TAF KCNU
Valid from the 26 at 12:00 until the 27 at 12:00 UTC


261120Z 2612/2712 18009KT P6SM SKC
FM261500 20018G29KT P6SM SKC
FM270300 19013G22KT P6SM FEW250 WS020/22040KT
FM270600 20013KT P6SM FEW250 WS020/22045KT
KZKC FIR / North America



MET'MAP, your aeronautical weather chart ! - Copyright ORBIFLY December 2007 - Disclaimer

ORBIFLY MET'MAP TEAM :

Programming & Development : Alexandra Zaïnal
Concept & original design : Baudouin d'Aumeries
Assistance for programming : Marc-Olivier Méhu
Technical & hardware support : Manuel Goepfert

Contact : metmap@orbifly.com




SOURCES & CREDITS :

   NOAA       Earth
Advisory